Time;durP1;ratioP1;P1;durP2;ratioP2;P2;SDS_P1;SDS_P2;PMS_P1;PMS_P2;Temp;Humidity;BMP_temperature;BMP_pressure;BME280_temperature;BME280_humidity;BME280_pressure;Samples;Min_cycle;Max_cycle;Signal;HPM_P1;HPM_P2
2023/09/13 00:00:38;;;;;;;7.60;2.53;;;18.10;99.90;;;;;;5072869;28;20251;-85
2023/09/13 00:03:04;;;;;;;10.88;2.47;;;18.10;99.90;;;;;;5063087;28;20056;-84
2023/09/13 00:05:30;;;;;;;6.80;2.25;;;18.10;99.90;;;;;;5058603;28;20048;-85
2023/09/13 00:07:55;;;;;;;7.18;3.03;;;18.10;99.90;;;;;;5060817;28;20028;-85
2023/09/13 00:10:21;;;;;;;5.75;2.40;;;18.10;99.90;;;;;;5069683;28;20345;-85
2023/09/13 00:12:47;;;;;;;8.55;2.80;;;18.00;99.90;;;;;;5074641;28;20040;-85
2023/09/13 00:15:13;;;;;;;10.13;3.00;;;18.00;99.90;;;;;;5060369;28;20041;-85
2023/09/13 00:17:38;;;;;;;11.93;3.45;;;18.00;99.90;;;;;;5074582;28;20032;-84
2023/09/13 00:20:07;;;;;;;6.93;2.20;;;18.00;99.90;;;;;;5062445;28;20040;-84
2023/09/13 00:22:33;;;;;;;4.85;2.40;;;18.00;99.90;;;;;;5077387;28;20056;-85
2023/09/13 00:24:58;;;;;;;7.60;2.70;;;17.90;99.90;;;;;;5063034;28;20032;-84
2023/09/13 00:27:24;;;;;;;6.97;2.75;;;17.90;99.90;;;;;;5063039;28;20068;-84
2023/09/13 00:29:49;;;;;;;6.18;2.20;;;17.80;99.90;;;;;;5064421;28;20036;-84
2023/09/13 00:32:15;;;;;;;5.97;2.35;;;17.80;99.90;;;;;;5060835;28;20051;-84
2023/09/13 00:34:40;;;;;;;7.10;2.28;;;17.80;99.90;;;;;;5059716;28;20127;-84
2023/09/13 00:37:06;;;;;;;9.20;2.00;;;17.70;99.90;;;;;;5057932;28;20042;-84
2023/09/13 00:39:32;;;;;;;6.50;2.85;;;17.70;99.90;;;;;;5063727;28;20451;-84
2023/09/13 00:42:00;;;;;;;4.43;1.92;;;17.70;99.90;;;;;;5058108;28;20358;-84
2023/09/13 00:44:26;;;;;;;7.38;2.63;;;17.60;99.90;;;;;;5060821;28;20477;-84
2023/09/13 00:46:53;;;;;;;6.13;2.63;;;17.60;99.90;;;;;;5058814;28;20032;-84
2023/09/13 00:49:18;;;;;;;6.85;2.20;;;17.60;99.90;;;;;;5063503;28;20109;-84
2023/09/13 00:51:44;;;;;;;6.65;2.17;;;17.60;99.90;;;;;;5056347;28;20306;-84
2023/09/13 00:54:10;;;;;;;7.07;1.85;;;17.60;99.90;;;;;;5057328;28;20307;-84
2023/09/13 00:56:36;;;;;;;4.95;2.20;;;17.60;99.90;;;;;;5063937;28;20133;-84
2023/09/13 00:59:03;;;;;;;6.88;2.20;;;17.50;99.90;;;;;;5063700;28;20496;-84
2023/09/13 01:01:30;;;;;;;4.10;2.10;;;17.50;99.90;;;;;;5070361;28;20054;-84
2023/09/13 01:03:57;;;;;;;7.40;1.88;;;17.40;99.90;;;;;;5063484;28;20120;-84
2023/09/13 01:06:23;;;;;;;6.15;2.20;;;17.50;99.90;;;;;;5070095;28;20493;-84
2023/09/13 01:08:49;;;;;;;5.82;2.15;;;17.40;99.90;;;;;;5074708;28;20050;-84
2023/09/13 01:11:14;;;;;;;4.47;2.40;;;17.30;99.90;;;;;;5056052;28;20139;-84
2023/09/13 01:13:40;;;;;;;6.45;1.77;;;17.40;99.90;;;;;;5080624;28;20043;-84
2023/09/13 01:16:31;;;;;;;7.25;2.00;;;17.30;99.90;;;;;;5073055;28;20035;-84
2023/09/13 01:19:01;;;;;;;8.70;1.85;;;17.30;99.90;;;;;;5064857;28;20036;-84
2023/09/13 01:21:48;;;;;;;5.95;1.83;;;17.30;99.90;;;;;;5060446;28;20043;-84
2023/09/13 01:24:20;;;;;;;7.60;1.70;;;17.20;99.90;;;;;;5061422;28;20036;-84
2023/09/13 01:27:22;;;;;;;5.53;2.00;;;17.20;99.90;;;;;;5061343;28;20040;-84
2023/09/13 01:29:58;;;;;;;7.75;2.63;;;17.20;99.90;;;;;;5073354;28;20035;-84
2023/09/13 01:32:24;;;;;;;4.88;2.05;;;17.20;99.90;;;;;;5060625;28;20169;-84
2023/09/13 01:34:49;;;;;;;10.10;2.20;;;17.20;99.90;;;;;;5070840;28;20127;-84
2023/09/13 01:37:15;;;;;;;6.40;2.50;;;17.20;99.90;;;;;;5072684;28;20123;-84
2023/09/13 01:39:41;;;;;;;5.88;1.85;;;17.10;99.90;;;;;;5061446;28;20338;-84
2023/09/13 01:42:10;;;;;;;6.10;2.45;;;17.00;99.90;;;;;;5062073;28;20473;-84
2023/09/13 01:44:40;;;;;;;5.03;2.00;;;17.00;99.90;;;;;;5055862;28;20044;-85
2023/09/13 01:47:07;;;;;;;6.95;2.00;;;17.00;99.90;;;;;;5069596;28;20121;-84
2023/09/13 01:49:35;;;;;;;5.00;1.98;;;17.00;99.90;;;;;;5090806;28;20393;-84
2023/09/13 01:52:04;;;;;;;8.77;2.42;;;16.90;99.90;;;;;;5087229;28;20043;-83
2023/09/13 01:54:33;;;;;;;8.40;2.47;;;16.90;99.90;;;;;;5090080;28;20654;-84
2023/09/13 01:56:58;;;;;;;8.15;2.10;;;16.90;99.90;;;;;;5072067;28;20201;-84
2023/09/13 01:59:24;;;;;;;7.35;1.90;;;16.90;99.90;;;;;;5059885;28;20501;-83
2023/09/13 02:01:50;;;;;;;7.85;1.95;;;16.90;99.90;;;;;;5073623;28;20336;-84
2023/09/13 02:04:15;;;;;;;5.65;2.20;;;16.90;99.90;;;;;;5061781;28;20111;-84
2023/09/13 02:06:41;;;;;;;8.15;2.15;;;16.90;99.90;;;;;;5071720;28;20561;-84
2023/09/13 02:09:06;;;;;;;9.07;1.98;;;17.00;99.90;;;;;;5073991;28;20048;-84
2023/09/13 02:11:32;;;;;;;7.60;2.10;;;16.90;99.90;;;;;;5058207;28;20116;-84
2023/09/13 02:13:58;;;;;;;6.70;1.80;;;16.90;99.90;;;;;;5060157;28;20041;-84
2023/09/13 02:16:24;;;;;;;11.10;2.20;;;16.90;99.90;;;;;;5071247;28;20127;-84
2023/09/13 02:18:50;;;;;;;6.47;1.98;;;16.90;99.90;;;;;;5061533;28;20047;-83
2023/09/13 02:21:16;;;;;;;8.07;2.00;;;16.90;99.90;;;;;;5071988;28;20044;-84
2023/09/13 02:23:43;;;;;;;6.50;2.38;;;16.80;99.90;;;;;;5067972;28;20322;-84
2023/09/13 02:26:19;;;;;;;6.78;1.75;;;16.80;99.90;;;;;;5056096;28;20040;-84
2023/09/13 02:28:45;;;;;;;6.28;1.90;;;16.90;99.90;;;;;;5072809;28;20097;-85
2023/09/13 02:31:11;;;;;;;9.60;2.38;;;16.90;99.90;;;;;;5066777;28;20830;-84
2023/09/13 02:33:36;;;;;;;5.50;1.88;;;16.90;99.90;;;;;;5062090;28;20549;-85
2023/09/13 02:36:05;;;;;;;7.05;2.15;;;16.90;99.90;;;;;;5066078;28;20049;-84
2023/09/13 02:38:31;;;;;;;4.50;1.80;;;16.90;99.90;;;;;;5052411;28;20150;-84
2023/09/13 02:40:56;;;;;;;6.68;2.10;;;16.90;99.90;;;;;;5053932;28;20167;-84
2023/09/13 02:43:22;;;;;;;4.78;2.00;;;16.90;99.90;;;;;;5055272;28;20497;-85
2023/09/13 02:45:48;;;;;;;6.05;1.98;;;16.90;99.90;;;;;;5059190;28;20139;-85
2023/09/13 02:48:13;;;;;;;7.70;2.42;;;16.90;99.90;;;;;;5071784;28;20512;-85
2023/09/13 02:50:42;;;;;;;5.10;1.88;;;16.90;99.90;;;;;;5060997;28;20220;-84
2023/09/13 02:53:08;;;;;;;6.35;1.92;;;16.90;99.90;;;;;;5060423;28;20085;-84
2023/09/13 02:55:33;;;;;;;4.88;1.98;;;16.90;99.90;;;;;;5070883;28;20551;-84
2023/09/13 02:57:59;;;;;;;8.13;2.17;;;16.90;99.90;;;;;;5061511;28;20067;-85
2023/09/13 03:00:24;;;;;;;3.30;1.77;;;16.90;99.90;;;;;;5065398;28;20044;-85
2023/09/13 03:02:50;;;;;;;5.05;2.10;;;16.80;99.90;;;;;;5063793;28;20444;-84
2023/09/13 03:05:17;;;;;;;6.05;2.08;;;16.90;99.90;;;;;;5074005;28;20036;-84
2023/09/13 03:07:42;;;;;;;4.38;1.83;;;16.90;99.90;;;;;;5074331;28;20115;-84
2023/09/13 03:10:09;;;;;;;10.95;2.63;;;16.90;99.90;;;;;;5062847;28;20206;-84
2023/09/13 03:12:34;;;;;;;6.63;2.35;;;16.90;99.90;;;;;;5078820;28;20028;-84
2023/09/13 03:15:01;;;;;;;8.63;2.38;;;16.80;99.90;;;;;;5062928;28;20044;-85
2023/09/13 03:17:28;;;;;;;7.50;1.98;;;16.90;99.90;;;;;;5056698;28;20050;-85
2023/09/13 03:19:56;;;;;;;6.55;2.40;;;16.90;99.90;;;;;;5073246;28;20124;-84
2023/09/13 03:22:22;;;;;;;7.03;2.25;;;16.90;99.90;;;;;;5062310;28;20039;-84
2023/09/13 03:24:48;;;;;;;5.82;2.25;;;16.80;99.90;;;;;;5059235;28;20044;-85
2023/09/13 03:27:16;;;;;;;4.72;2.10;;;16.90;99.90;;;;;;5075444;28;20135;-85
2023/09/13 03:29:41;;;;;;;7.80;2.15;;;16.90;99.90;;;;;;5072512;28;20033;-84
2023/09/13 03:32:07;;;;;;;6.03;2.03;;;16.90;99.90;;;;;;5059842;28;20044;-85
2023/09/13 03:34:33;;;;;;;5.82;2.20;;;16.80;99.90;;;;;;5062772;28;20042;-84
2023/09/13 03:36:59;;;;;;;7.88;2.25;;;16.80;99.90;;;;;;5053003;28;20044;-85
2023/09/13 03:39:28;;;;;;;7.82;3.15;;;16.80;99.90;;;;;;5060359;28;20047;-85
2023/09/13 03:41:54;;;;;;;7.82;2.15;;;16.80;99.90;;;;;;5052725;28;20044;-85
2023/09/13 03:44:20;;;;;;;6.07;1.98;;;16.90;99.90;;;;;;5074917;28;20048;-85
2023/09/13 03:46:45;;;;;;;7.22;2.55;;;16.90;99.90;;;;;;5072876;28;20336;-84
2023/09/13 03:49:11;;;;;;;8.85;2.10;;;16.90;99.90;;;;;;5061835;28;20263;-85
2023/09/13 03:51:37;;;;;;;5.63;2.08;;;16.80;99.90;;;;;;5059461;28;20036;-85
2023/09/13 03:54:02;;;;;;;8.52;2.33;;;16.90;99.90;;;;;;5064827;28;20040;-85
2023/09/13 03:56:28;;;;;;;8.27;2.30;;;16.90;99.90;;;;;;5075297;28;20399;-85
2023/09/13 03:58:54;;;;;;;8.57;2.83;;;16.90;99.90;;;;;;5070811;28;20102;-84
2023/09/13 04:01:19;;;;;;;7.93;2.78;;;16.90;99.90;;;;;;5061161;28;20093;-85
2023/09/13 04:03:48;;;;;;;10.82;2.72;;;16.90;99.90;;;;;;5061876;28;20555;-85
2023/09/13 04:06:14;;;;;;;6.07;2.28;;;16.80;99.90;;;;;;5072771;28;20511;-85
2023/09/13 04:08:40;;;;;;;11.02;2.20;;;16.80;99.90;;;;;;5061290;28;20428;-85
2023/09/13 04:11:07;;;;;;;5.53;2.05;;;16.80;99.90;;;;;;5072844;28;20435;-83
2023/09/13 04:13:32;;;;;;;7.32;2.38;;;16.70;99.90;;;;;;5061446;28;20068;-84
2023/09/13 04:16:06;;;;;;;8.20;2.45;;;16.70;99.90;;;;;;5044758;28;20451;-84
2023/09/13 04:18:31;;;;;;;5.57;1.83;;;16.60;99.90;;;;;;5054257;28;20040;-84
2023/09/13 04:20:57;;;;;;;8.00;1.95;;;16.60;99.90;;;;;;5056755;28;20037;-84
2023/09/13 04:23:23;;;;;;;5.25;1.98;;;16.50;99.90;;;;;;5057739;28;20463;-84
2023/09/13 04:25:48;;;;;;;10.90;2.10;;;16.50;99.90;;;;;;5060241;28;20437;-83
2023/09/13 04:28:14;;;;;;;9.45;2.10;;;16.40;99.90;;;;;;5059853;28;20444;-84
2023/09/13 04:30:40;;;;;;;6.07;1.88;;;16.30;99.90;;;;;;5062105;28;20036;-83
2023/09/13 04:33:06;;;;;;;8.10;2.10;;;16.20;99.90;;;;;;5074384;28;20036;-84
2023/09/13 04:35:33;;;;;;;8.30;2.58;;;16.00;99.90;;;;;;5075152;28;20629;-83
2023/09/13 04:37:58;;;;;;;6.05;1.60;;;16.00;99.90;;;;;;5077619;28;20299;-83
2023/09/13 04:40:25;;;;;;;6.20;1.80;;;15.80;99.90;;;;;;5071543;28;20040;-83
2023/09/13 04:43:00;;;;;;;8.70;2.20;;;15.80;99.90;;;;;;5071387;28;20317;-83
2023/09/13 04:45:25;;;;;;;5.38;2.00;;;15.70;99.90;;;;;;5052398;28;20059;-83
2023/09/13 04:47:51;;;;;;;6.93;2.58;;;15.60;99.90;;;;;;5067824;28;20036;-84
2023/09/13 04:50:16;;;;;;;7.63;1.98;;;15.50;99.90;;;;;;5054965;28;20047;-83
2023/09/13 04:52:42;;;;;;;4.60;1.85;;;15.40;99.90;;;;;;5062791;28;20040;-82
2023/09/13 04:55:11;;;;;;;8.52;2.10;;;15.30;99.90;;;;;;5061564;28;20476;-83
2023/09/13 04:57:38;;;;;;;4.97;1.83;;;15.30;99.90;;;;;;5057708;28;20388;-83
2023/09/13 05:00:10;;;;;;;8.43;2.28;;;15.30;99.90;;;;;;5058199;28;20897;-82
2023/09/13 05:02:37;;;;;;;6.15;2.40;;;15.10;99.90;;;;;;5056012;28;20029;-82
2023/09/13 05:05:02;;;;;;;9.27;2.47;;;15.10;99.90;;;;;;5061080;28;20050;-82
2023/09/13 05:07:28;;;;;;;6.05;1.92;;;15.00;99.90;;;;;;5071335;28;20032;-82
2023/09/13 05:09:57;;;;;;;10.18;2.40;;;15.00;99.90;;;;;;5061874;28;20952;-82
2023/09/13 05:12:22;;;;;;;5.60;2.10;;;15.00;99.90;;;;;;5087967;28;20463;-82
2023/09/13 05:14:48;;;;;;;12.55;2.40;;;14.90;99.90;;;;;;5061142;28;20040;-82
2023/09/13 05:17:14;;;;;;;4.75;2.00;;;14.90;99.90;;;;;;5056291;28;20793;-81
2023/09/13 05:19:39;;;;;;;7.07;2.15;;;15.00;99.90;;;;;;5058692;28;20403;-82
2023/09/13 05:22:05;;;;;;;7.50;2.25;;;14.90;99.90;;;;;;5054986;28;20253;-81
2023/09/13 05:24:31;;;;;;;5.53;1.95;;;15.00;99.90;;;;;;5057189;28;20089;-81
2023/09/13 05:26:56;;;;;;;7.82;2.05;;;15.00;99.90;;;;;;5073363;28;20046;-81
2023/09/13 05:29:22;;;;;;;6.68;1.75;;;15.00;99.90;;;;;;5062215;28;20044;-82
2023/09/13 05:31:49;;;;;;;6.85;1.90;;;15.00;99.90;;;;;;5059398;28;20151;-82
2023/09/13 05:34:14;;;;;;;7.35;2.20;;;14.90;99.90;;;;;;5063809;28;20043;-82
2023/09/13 05:36:41;;;;;;;4.15;1.70;;;14.80;99.90;;;;;;5071816;28;20463;-81
2023/09/13 05:39:08;;;;;;;5.22;1.80;;;14.70;99.90;;;;;;5062752;28;20060;-82
2023/09/13 05:41:34;;;;;;;8.65;2.13;;;14.70;99.90;;;;;;5063655;28;20052;-82
2023/09/13 05:43:59;;;;;;;7.35;2.15;;;14.60;99.90;;;;;;5060109;28;20056;-82
2023/09/13 05:46:25;;;;;;;7.10;2.10;;;14.60;99.90;;;;;;5059105;28;20652;-82
2023/09/13 05:48:51;;;;;;;8.15;2.13;;;14.50;99.90;;;;;;5058202;28;20030;-82
2023/09/13 05:51:17;;;;;;;4.18;1.75;;;14.50;99.90;;;;;;5059792;28;20036;-82
2023/09/13 05:53:43;;;;;;;7.00;2.13;;;14.50;99.90;;;;;;5068712;28;20044;-82
2023/09/13 05:56:12;;;;;;;6.43;2.40;;;14.40;99.90;;;;;;5060301;28;20051;-82
2023/09/13 05:58:43;;;;;;;7.22;2.13;;;14.40;99.90;;;;;;5071424;28;20036;-83
2023/09/13 06:01:12;;;;;;;7.53;2.17;;;14.40;99.90;;;;;;5055354;28;20287;-82
2023/09/13 06:03:38;;;;;;;6.47;2.03;;;14.50;99.90;;;;;;5059948;28;20047;-81
2023/09/13 06:06:03;;;;;;;7.60;2.33;;;14.60;99.90;;;;;;5058475;28;20055;-81
2023/09/13 06:08:29;;;;;;;5.95;2.20;;;14.60;99.90;;;;;;5060988;28;20044;-81
2023/09/13 06:10:55;;;;;;;6.35;2.08;;;14.50;99.90;;;;;;5073011;28;20396;-81
2023/09/13 06:13:21;;;;;;;6.20;2.20;;;14.50;99.90;;;;;;5064740;28;20036;-81
2023/09/13 06:15:46;;;;;;;7.38;2.20;;;14.60;99.90;;;;;;5085447;28;20388;-81
2023/09/13 06:18:12;;;;;;;8.45;2.50;;;14.50;99.90;;;;;;5058510;28;20412;-82
2023/09/13 06:20:38;;;;;;;7.05;2.22;;;14.50;99.90;;;;;;5069393;28;20398;-82
2023/09/13 06:23:04;;;;;;;7.47;2.63;;;14.60;99.90;;;;;;5075463;28;20047;-82
2023/09/13 06:25:29;;;;;;;8.82;2.88;;;14.50;99.90;;;;;;5059435;28;20177;-82
2023/09/13 06:27:55;;;;;;;10.75;2.97;;;14.50;99.90;;;;;;5072189;28;20404;-82
2023/09/13 06:30:21;;;;;;;8.82;2.70;;;14.60;99.90;;;;;;5071431;28;20033;-82
2023/09/13 06:32:46;;;;;;;6.82;2.10;;;14.60;99.90;;;;;;5060908;28;20032;-82
2023/09/13 06:35:13;;;;;;;7.75;2.60;;;14.60;99.90;;;;;;5077845;28;20033;-82
2023/09/13 06:37:40;;;;;;;9.63;2.65;;;14.60;99.90;;;;;;5058759;28;20040;-82
2023/09/13 06:40:07;;;;;;;9.60;3.17;;;14.50;99.90;;;;;;5063244;28;20048;-83
2023/09/13 06:42:32;;;;;;;10.27;3.13;;;14.60;99.90;;;;;;5078118;28;20043;-82
2023/09/13 06:44:59;;;;;;;11.43;3.25;;;14.60;99.90;;;;;;5077189;28;20028;-82
2023/09/13 06:47:28;;;;;;;10.93;3.10;;;14.60;99.90;;;;;;5095067;28;20463;-82
2023/09/13 06:49:54;;;;;;;9.23;2.70;;;14.60;99.90;;;;;;5079786;28;20401;-83
2023/09/13 06:52:20;;;;;;;11.13;3.08;;;14.60;99.90;;;;;;5085282;28;20034;-82
2023/09/13 06:54:46;;;;;;;9.82;3.25;;;14.60;99.90;;;;;;5112737;27;20438;-83
2023/09/13 06:57:12;;;;;;;7.78;3.03;;;14.70;99.90;;;;;;5094897;28;20035;-83
2023/09/13 06:59:38;;;;;;;10.77;3.20;;;14.70;99.90;;;;;;5080558;28;20047;-83
2023/09/13 07:02:04;;;;;;;8.32;2.80;;;14.80;99.90;;;;;;5095356;28;20055;-83
2023/09/13 07:04:30;;;;;;;11.63;3.20;;;14.80;99.90;;;;;;5077525;28;20040;-84
2023/09/13 07:06:56;;;;;;;6.25;2.42;;;14.80;99.90;;;;;;5079704;28;20035;-83
2023/09/13 07:09:22;;;;;;;13.40;3.20;;;14.90;99.90;;;;;;5100722;28;20046;-83
2023/09/13 07:11:47;;;;;;;10.88;3.00;;;14.80;99.90;;;;;;5079497;28;20488;-83
2023/09/13 07:14:13;;;;;;;14.93;3.35;;;14.80;99.90;;;;;;5098816;28;20372;-83
2023/09/13 07:16:38;;;;;;;9.88;2.75;;;14.90;99.90;;;;;;5096501;28;20035;-82
2023/09/13 07:19:04;;;;;;;9.55;3.70;;;15.00;99.90;;;;;;5096410;28;20453;-83
2023/09/13 07:21:30;;;;;;;8.35;2.78;;;15.10;99.90;;;;;;5080240;28;20048;-83
2023/09/13 07:23:55;;;;;;;6.85;2.75;;;15.10;99.90;;;;;;5083314;28;20611;-83
2023/09/13 07:26:21;;;;;;;14.98;3.65;;;15.20;99.90;;;;;;5085404;28;20568;-82
2023/09/13 07:28:47;;;;;;;19.15;2.97;;;15.30;99.90;;;;;;5092932;28;20044;-83
2023/09/13 07:31:13;;;;;;;9.68;3.25;;;15.20;99.90;;;;;;5089863;28;20161;-82
2023/09/13 07:33:38;;;;;;;9.15;2.75;;;15.20;99.90;;;;;;5076022;28;20376;-83
2023/09/13 07:36:04;;;;;;;7.05;2.30;;;15.20;99.90;;;;;;5084656;28;20039;-83
2023/09/13 07:38:30;;;;;;;5.78;2.17;;;15.20;99.90;;;;;;5081775;28;20421;-82
2023/09/13 07:40:56;;;;;;;7.07;2.58;;;15.10;99.90;;;;;;5082283;28;20042;-83
2023/09/13 07:43:21;;;;;;;6.57;2.70;;;15.20;99.90;;;;;;5087724;28;20063;-82
2023/09/13 07:45:47;;;;;;;11.32;3.35;;;15.20;99.90;;;;;;5062066;28;20067;-83
2023/09/13 07:48:13;;;;;;;8.35;2.30;;;15.30;99.90;;;;;;5060646;28;20039;-83
2023/09/13 07:50:42;;;;;;;11.77;2.55;;;15.30;99.90;;;;;;5076064;28;20043;-82
2023/09/13 07:53:12;;;;;;;6.60;2.53;;;15.40;99.90;;;;;;5059435;28;20505;-83
2023/09/13 07:55:38;;;;;;;8.23;2.65;;;15.50;99.90;;;;;;5059933;28;20040;-83
2023/09/13 07:58:05;;;;;;;6.65;2.40;;;15.50;99.90;;;;;;5067702;28;20032;-83
2023/09/13 08:00:32;;;;;;;7.05;2.17;;;15.60;99.90;;;;;;5061556;28;20083;-83
2023/09/13 08:03:02;;;;;;;9.27;2.40;;;15.70;99.90;;;;;;5061243;28;20495;-83
2023/09/13 08:05:28;;;;;;;6.32;2.00;;;15.60;99.90;;;;;;5058015;28;20032;-83
2023/09/13 08:07:54;;;;;;;4.82;2.00;;;15.50;99.90;;;;;;5075308;28;20040;-83
2023/09/13 08:10:24;;;;;;;7.38;1.98;;;15.60;99.90;;;;;;5077515;28;20094;-83
2023/09/13 08:12:50;;;;;;;5.90;2.10;;;15.80;99.90;;;;;;5071700;28;20090;-83
2023/09/13 08:15:16;;;;;;;7.75;1.98;;;15.90;99.90;;;;;;5062516;28;20505;-83
2023/09/13 08:17:41;;;;;;;5.50;2.00;;;16.20;99.90;;;;;;5063322;28;20055;-84
2023/09/13 08:20:08;;;;;;;7.07;2.03;;;16.40;99.90;;;;;;5075788;28;20036;-84
2023/09/13 08:22:35;;;;;;;6.70;1.98;;;16.40;99.90;;;;;;5087266;28;20052;-84
2023/09/13 08:25:01;;;;;;;6.45;1.95;;;16.40;99.90;;;;;;5096232;28;20506;-84
2023/09/13 08:27:27;;;;;;;5.10;2.05;;;16.60;99.90;;;;;;5063817;28;20135;-83
2023/09/13 08:29:55;;;;;;;5.65;1.80;;;16.70;99.90;;;;;;5060635;28;20534;-84
2023/09/13 08:32:22;;;;;;;5.90;2.00;;;16.50;99.90;;;;;;5058105;28;20036;-84
2023/09/13 08:34:47;;;;;;;7.70;2.03;;;16.50;99.90;;;;;;5063110;28;20071;-83
2023/09/13 08:37:13;;;;;;;5.53;2.15;;;16.30;99.90;;;;;;5070266;28;20124;-85
2023/09/13 08:39:39;;;;;;;9.68;2.15;;;16.40;99.90;;;;;;5059021;28;20071;-84
2023/09/13 08:42:05;;;;;;;5.32;1.70;;;16.30;99.90;;;;;;5059448;28;20040;-84
2023/09/13 08:44:33;;;;;;;5.68;1.80;;;16.40;99.90;;;;;;5071745;28;20117;-84
2023/09/13 08:47:02;;;;;;;5.97;2.28;;;16.40;99.90;;;;;;5075676;28;20161;-84
2023/09/13 08:49:33;;;;;;;6.15;2.03;;;16.30;99.90;;;;;;5049486;28;20054;-84
2023/09/13 08:52:08;;;;;;;7.18;1.70;;;16.50;99.90;;;;;;5055072;28;20626;-84
2023/09/13 08:54:34;;;;;;;;;;;16.70;99.90;;;;;;5058006;28;20413;-84
2023/09/13 08:57:02;;;;;;;6.60;2.20;;;16.80;99.90;;;;;;5079993;28;19931;-84
2023/09/13 08:59:28;;;;;;;6.68;1.80;;;16.90;99.90;;;;;;5061174;28;20054;-84
2023/09/13 09:01:54;;;;;;;7.93;2.38;;;16.90;99.90;;;;;;5068169;28;20116;-84
2023/09/13 09:04:21;;;;;;;8.77;2.78;;;16.90;99.90;;;;;;5073026;28;20342;-84
2023/09/13 09:06:47;;;;;;;6.72;2.05;;;16.80;99.90;;;;;;5061151;28;20032;-84
2023/09/13 09:09:17;;;;;;;5.68;2.03;;;16.70;99.90;;;;;;5077556;28;20036;-84
2023/09/13 09:11:45;;;;;;;5.45;2.20;;;16.80;99.90;;;;;;5062479;28;20090;-85
2023/09/13 09:14:14;;;;;;;4.88;1.85;;;16.80;99.90;;;;;;5064361;28;20040;-84
2023/09/13 09:16:42;;;;;;;10.00;2.40;;;16.90;99.90;;;;;;5073126;28;20131;-84
2023/09/13 09:19:08;;;;;;;9.30;2.60;;;17.10;99.90;;;;;;5051943;28;20051;-84
2023/09/13 09:21:38;;;;;;;6.65;2.17;;;17.80;99.90;;;;;;5075152;28;20044;-85
2023/09/13 09:24:04;;;;;;;7.53;2.22;;;17.40;99.90;;;;;;5073526;28;20505;-84
2023/09/13 09:26:29;;;;;;;6.10;2.53;;;17.60;99.90;;;;;;5077281;28;20107;-84
2023/09/13 09:29:08;;;;;;;8.45;2.72;;;17.80;99.90;;;;;;5066258;28;20036;-84
2023/09/13 09:31:34;;;;;;;7.10;2.08;;;17.90;99.90;;;;;;5063633;28;20474;-84
2023/09/13 09:34:03;;;;;;;7.25;2.35;;;17.40;99.90;;;;;;5082199;28;20043;-85
2023/09/13 09:36:34;;;;;;;5.43;1.90;;;17.10;99.90;;;;;;5061092;28;20071;-83
2023/09/13 09:39:01;;;;;;;7.25;2.30;;;16.40;99.90;;;;;;5061014;28;20416;-83
2023/09/13 09:41:38;;;;;;;7.18;2.15;;;16.20;99.90;;;;;;5080204;28;20052;-83
2023/09/13 09:44:05;;;;;;;8.85;2.50;;;16.00;99.90;;;;;;5081806;28;20623;-83
2023/09/13 09:46:32;;;;;;;7.70;2.35;;;16.20;99.90;;;;;;5073348;28;20052;-83
2023/09/13 09:49:04;;;;;;;9.45;2.30;;;16.20;99.90;;;;;;5062778;28;20082;-83
2023/09/13 09:51:33;;;;;;;10.43;2.60;;;16.10;99.90;;;;;;5058163;28;20040;-83
2023/09/13 09:53:59;;;;;;;9.70;2.53;;;16.00;99.90;;;;;;5078950;28;20089;-83
2023/09/13 09:56:25;;;;;;;6.70;2.55;;;16.10;99.90;;;;;;5066478;28;20467;-83
2023/09/13 09:58:51;;;;;;;8.73;2.50;;;16.00;99.90;;;;;;5061841;28;20939;-83
2023/09/13 10:01:18;;;;;;;7.93;2.60;;;16.00;99.90;;;;;;5075770;28;20147;-83
2023/09/13 10:03:44;;;;;;;5.22;2.05;;;15.70;99.90;;;;;;5062888;28;20136;-82
2023/09/13 10:06:11;;;;;;;8.50;2.30;;;15.70;99.90;;;;;;5059767;28;20045;-83
2023/09/13 10:08:43;;;;;;;6.60;2.60;;;16.00;99.90;;;;;;5069510;28;20455;-83
2023/09/13 10:11:14;;;;;;;6.32;1.98;;;16.10;99.90;;;;;;5065425;28;20097;-83
2023/09/13 10:13:41;;;;;;;7.72;2.10;;;16.40;99.90;;;;;;5077023;28;20608;-84
2023/09/13 10:16:09;;;;;;;6.22;2.33;;;16.40;99.90;;;;;;5064653;28;20508;-83
2023/09/13 10:18:49;;;;;;;8.43;2.65;;;16.70;99.90;;;;;;5063429;28;20036;-83
2023/09/13 10:21:19;;;;;;;4.63;2.20;;;17.10;99.90;;;;;;5074860;28;20108;-84
2023/09/13 10:23:49;;;;;;;5.50;2.22;;;17.40;99.90;;;;;;5061492;28;20055;-83
2023/09/13 10:26:20;;;;;;;6.15;2.25;;;17.30;99.90;;;;;;5065527;28;20036;-83
2023/09/13 10:28:46;;;;;;;5.75;2.00;;;17.30;99.90;;;;;;5077734;28;20044;-84
2023/09/13 10:31:18;;;;;;;7.07;2.15;;;17.40;99.90;;;;;;5068319;28;20781;-84
2023/09/13 10:33:49;;;;;;;5.00;1.90;;;17.60;99.90;;;;;;5060445;28;20383;-84
2023/09/13 10:36:38;;;;;;;6.22;2.20;;;17.40;99.90;;;;;;5066786;28;20524;-84
2023/09/13 10:39:26;;;;;;;6.22;2.00;;;17.70;99.90;;;;;;5068912;28;20111;-84
2023/09/13 10:42:06;;;;;;;4.57;2.20;;;17.80;99.90;;;;;;5078881;28;20375;-84
2023/09/13 10:44:34;;;;;;;4.88;2.10;;;18.30;99.90;;;;;;5076707;28;20147;-84
2023/09/13 10:47:00;;;;;;;4.88;2.30;;;18.30;99.90;;;;;;5082858;28;20461;-84
2023/09/13 10:49:26;;;;;;;5.25;2.28;;;18.10;99.90;;;;;;5067016;28;20039;-83
2023/09/13 10:51:54;;;;;;;4.55;1.80;;;18.20;99.90;;;;;;5068709;28;20036;-84
2023/09/13 10:54:25;;;;;;;5.70;2.15;;;17.90;99.90;;;;;;5075091;28;20048;-84
2023/09/13 10:56:51;;;;;;;5.30;2.05;;;18.00;99.90;;;;;;5078538;28;20052;-84
2023/09/13 10:59:22;;;;;;;5.18;2.00;;;17.90;99.90;;;;;;5069129;28;20123;-85
2023/09/13 11:01:48;;;;;;;4.70;1.67;;;17.80;99.90;;;;;;5057654;28;20106;-84
2023/09/13 11:04:17;;;;;;;7.63;2.30;;;18.10;99.90;;;;;;5066302;28;20143;-84
2023/09/13 11:06:44;;;;;;;6.45;1.88;;;18.30;99.90;;;;;;5066627;28;20158;-84
2023/09/13 11:09:13;;;;;;;5.57;2.25;;;18.20;99.90;;;;;;5081336;28;20067;-85
2023/09/13 11:11:44;;;;;;;4.10;1.98;;;18.30;99.90;;;;;;5068990;28;20103;-84
2023/09/13 11:14:12;;;;;;;6.43;2.08;;;18.20;99.90;;;;;;5068975;28;20568;-84
2023/09/13 11:16:39;;;;;;;5.85;2.30;;;18.60;99.90;;;;;;5068493;28;20123;-84
2023/09/13 11:19:09;;;;;;;3.78;2.00;;;18.60;99.90;;;;;;5061379;28;20378;-85
2023/09/13 11:21:54;;;;;;;7.70;2.10;;;18.40;99.90;;;;;;5062296;28;20127;-84
2023/09/13 11:24:36;;;;;;;4.32;1.90;;;18.10;99.90;;;;;;5060638;28;20131;-85
2023/09/13 11:27:18;;;;;;;4.20;1.70;;;18.30;99.90;;;;;;5075395;28;20045;-85
2023/09/13 11:29:46;;;;;;;3.97;1.60;;;17.90;99.90;;;;;;5082525;28;20042;-84
2023/09/13 11:32:17;;;;;;;4.50;1.58;;;17.60;99.90;;;;;;5073591;28;20040;-85
2023/09/13 11:34:44;;;;;;;4.75;1.58;;;17.70;99.90;;;;;;5068399;28;20093;-84
2023/09/13 11:37:11;;;;;;;4.25;1.65;;;17.40;99.90;;;;;;5079770;28;20044;-85
2023/09/13 11:39:38;;;;;;;4.25;1.75;;;17.30;99.90;;;;;;5076081;28;20075;-84
2023/09/13 11:42:07;;;;;;;4.57;1.67;;;17.90;99.90;;;;;;5061860;28;20576;-85
2023/09/13 11:44:32;;;;;;;3.78;1.52;;;18.10;99.90;;;;;;5076517;28;20087;-85
2023/09/13 11:46:58;;;;;;;2.58;1.58;;;18.70;99.90;;;;;;5088526;28;20467;-84
2023/09/13 11:49:26;;;;;;;2.95;1.60;;;19.40;99.90;;;;;;5104945;28;20039;-85
2023/09/13 11:51:58;;;;;;;4.25;1.50;;;18.90;99.90;;;;;;5086845;28;20031;-85
2023/09/13 11:54:25;;;;;;;4.00;1.40;;;18.70;99.90;;;;;;5090716;28;20047;-86
2023/09/13 11:56:53;;;;;;;4.15;1.30;;;19.00;99.90;;;;;;5096905;28;20059;-84
2023/09/13 11:59:31;;;;;;;2.08;1.23;;;18.90;99.90;;;;;;5089281;28;20066;-85
2023/09/13 12:01:57;;;;;;;3.60;1.50;;;19.20;99.90;;;;;;5086215;28;20043;-85
2023/09/13 12:04:25;;;;;;;2.78;1.17;;;19.50;99.90;;;;;;5090095;28;20046;-86
2023/09/13 12:06:54;;;;;;;5.40;1.50;;;19.10;99.90;;;;;;5104132;28;20052;-85
2023/09/13 12:09:21;;;;;;;4.30;1.42;;;19.10;99.90;;;;;;5093586;28;20403;-85
2023/09/13 12:11:53;;;;;;;5.35;1.50;;;18.90;99.90;;;;;;5089532;28;20556;-84
2023/09/13 12:14:23;;;;;;;8.23;1.92;;;18.60;99.90;;;;;;5086958;28;20096;-85
2023/09/13 12:16:52;;;;;;;2.92;1.20;;;18.30;99.90;;;;;;5095726;28;20127;-86
2023/09/13 12:19:18;;;;;;;6.22;1.63;;;18.00;99.90;;;;;;5082596;28;20040;-85
2023/09/13 12:21:45;;;;;;;3.80;1.40;;;17.90;99.90;;;;;;5085223;28;20495;-85
2023/09/13 12:24:24;;;;;;;8.30;1.77;;;17.70;99.90;;;;;;5076727;28;20071;-85
2023/09/13 12:26:53;;;;;;;5.35;1.38;;;17.60;99.90;;;;;;5100609;28;20028;-85
2023/09/13 12:29:21;;;;;;;7.13;1.52;;;17.40;99.90;;;;;;5102510;28;20119;-85
2023/09/13 12:31:48;;;;;;;4.95;1.70;;;17.30;99.90;;;;;;5083129;28;20089;-85
2023/09/13 12:34:14;;;;;;;2.88;1.23;;;17.30;99.90;;;;;;5096259;28;21103;-85
2023/09/13 12:36:41;;;;;;;6.68;1.95;;;17.30;99.90;;;;;;5079616;28;20130;-86
2023/09/13 12:39:14;;;;;;;5.03;1.73;;;17.60;99.90;;;;;;5091083;28;20159;-86
2023/09/13 12:41:39;;;;;;;5.72;1.73;;;17.70;99.90;;;;;;5082087;28;20075;-85
2023/09/13 12:44:05;;;;;;;4.25;1.40;;;17.90;99.90;;;;;;5103557;27;20098;-85
2023/09/13 12:46:31;;;;;;;5.45;1.60;;;18.20;99.90;;;;;;5061016;28;20050;-84